Time;durP1;ratioP1;P1;durP2;ratioP2;P2;SDS_P1;SDS_P2;PMS_P1;PMS_P2;Temp;Humidity;BMP_temperature;BMP_pressure;BME280_temperature;BME280_humidity;BME280_pressure;Samples;Min_cycle;Max_cycle;Signal;HPM_P1;HPM_P2
2021/08/12 00:01:19;;;;;;;0.00;0.00;;;21.30;68.50;;;;;;4976733;28;20065;-90
2021/08/12 00:03:45;;;;;;;0.00;0.00;;;21.30;68.60;;;;;;4976839;28;20026;-90
2021/08/12 00:06:12;;;;;;;0.03;0.03;;;21.30;68.70;;;;;;4976811;28;20117;-90
2021/08/12 00:08:38;;;;;;;0.00;0.00;;;21.20;68.90;;;;;;4976672;28;20031;-90
2021/08/12 00:11:05;;;;;;;0.10;0.10;;;21.20;69.10;;;;;;4976318;28;20031;-90
2021/08/12 00:13:31;;;;;;;0.00;0.00;;;21.10;69.20;;;;;;4976611;28;20435;-90
2021/08/12 00:15:59;;;;;;;0.03;0.03;;;21.10;69.20;;;;;;4997672;28;20551;-90
2021/08/12 00:18:26;;;;;;;0.00;0.00;;;21.10;69.40;;;;;;4993997;28;20402;-90
2021/08/12 00:20:52;;;;;;;0.00;0.00;;;21.00;69.50;;;;;;4976501;28;20546;-90
2021/08/12 00:23:17;;;;;;;0.00;0.00;;;21.00;69.50;;;;;;4978656;28;20042;-90
2021/08/12 00:25:45;;;;;;;0.00;0.00;;;21.00;69.60;;;;;;4980394;28;20018;-90
2021/08/12 00:28:12;;;;;;;0.00;0.00;;;21.00;69.60;;;;;;4980132;28;20081;-90
2021/08/12 00:30:38;;;;;;;0.10;0.10;;;21.00;69.60;;;;;;4980348;28;20053;-90
2021/08/12 00:33:04;;;;;;;0.00;0.00;;;21.00;69.70;;;;;;4980043;28;20403;-90
2021/08/12 00:35:30;;;;;;;0.00;0.00;;;21.00;69.80;;;;;;4980133;28;20034;-91
2021/08/12 00:37:55;;;;;;;0.10;0.10;;;21.00;69.80;;;;;;4979990;28;20026;-90
2021/08/12 00:40:22;;;;;;;0.00;0.00;;;21.00;69.90;;;;;;4980151;28;20098;-90
2021/08/12 00:42:48;;;;;;;0.00;0.00;;;20.90;70.10;;;;;;4980020;28;20037;-91
2021/08/12 00:45:14;;;;;;;0.00;0.00;;;20.90;70.20;;;;;;4980014;28;20022;-90
2021/08/12 00:47:40;;;;;;;0.00;0.00;;;20.90;70.30;;;;;;4979805;28;20045;-90
2021/08/12 00:50:06;;;;;;;0.05;0.05;;;20.80;70.30;;;;;;4979989;28;20534;-90
2021/08/12 00:52:32;;;;;;;0.00;0.00;;;20.80;70.50;;;;;;4979715;28;20052;-90
2021/08/12 00:54:59;;;;;;;0.00;0.00;;;20.80;70.50;;;;;;4979670;28;20034;-90
2021/08/12 00:57:24;;;;;;;0.00;0.00;;;20.80;70.80;;;;;;4979618;28;20114;-90
2021/08/12 00:59:51;;;;;;;0.05;0.05;;;20.80;70.80;;;;;;4979886;28;20030;-91
2021/08/12 01:02:17;;;;;;;0.00;0.00;;;20.70;71.00;;;;;;4979635;28;20551;-90
2021/08/12 01:04:47;;;;;;;0.00;0.00;;;20.70;71.10;;;;;;4980093;28;20046;-90
2021/08/12 01:07:23;;;;;;;0.08;0.08;;;20.70;71.30;;;;;;4979743;28;20026;-90
2021/08/12 01:09:54;;;;;;;0.00;0.00;;;20.60;71.40;;;;;;4979970;28;20026;-89
2021/08/12 01:12:49;;;;;;;0.00;0.00;;;20.60;71.50;;;;;;4979791;28;20042;-90
2021/08/12 01:15:28;;;;;;;0.00;0.00;;;20.50;71.50;;;;;;4973790;28;20500;-90
2021/08/12 01:18:24;;;;;;;0.00;0.00;;;20.40;71.50;;;;;;4980751;28;20038;-90
2021/08/12 01:21:15;;;;;;;0.00;0.00;;;20.40;71.80;;;;;;4976330;28;20506;-91
2021/08/12 01:23:42;;;;;;;0.10;0.10;;;20.40;72.20;;;;;;4979194;28;20438;-90
2021/08/12 01:26:08;;;;;;;0.00;0.00;;;20.30;72.20;;;;;;4979240;28;20022;-90
2021/08/12 01:28:43;;;;;;;0.00;0.00;;;20.30;72.30;;;;;;4979286;28;20061;-91
2021/08/12 01:31:21;;;;;;;0.00;0.00;;;20.30;72.40;;;;;;4979314;28;20033;-90
2021/08/12 01:34:10;;;;;;;0.10;0.10;;;20.20;72.40;;;;;;4978130;28;20491;-91
2021/08/12 01:36:40;;;;;;;0.00;0.00;;;20.30;72.80;;;;;;4979377;28;20034;-90
2021/08/12 01:39:08;;;;;;;0.00;0.00;;;20.30;72.90;;;;;;4979008;28;20022;-90
2021/08/12 01:41:34;;;;;;;0.10;0.10;;;20.20;72.90;;;;;;4979097;28;20037;-90
2021/08/12 01:44:01;;;;;;;0.00;0.00;;;20.20;73.10;;;;;;4979094;28;20026;-90
2021/08/12 01:46:28;;;;;;;0.00;0.00;;;20.20;73.20;;;;;;4979090;28;20037;-91
2021/08/12 01:48:56;;;;;;;0.05;0.05;;;20.20;73.30;;;;;;4978952;28;20026;-90
2021/08/12 01:51:24;;;;;;;0.00;0.00;;;20.10;73.30;;;;;;4979886;28;20096;-90
2021/08/12 01:53:51;;;;;;;0.00;0.00;;;20.10;74.10;;;;;;4978595;28;20108;-90
2021/08/12 01:56:19;;;;;;;0.00;0.00;;;20.10;73.60;;;;;;4978876;28;20117;-89
2021/08/12 01:58:46;;;;;;;0.00;0.00;;;20.00;73.70;;;;;;4978731;28;20023;-90
2021/08/12 02:01:12;;;;;;;0.00;0.00;;;20.00;73.90;;;;;;4978737;28;20503;-90
2021/08/12 02:03:39;;;;;;;0.00;0.00;;;20.00;74.20;;;;;;4978569;28;20468;-90
2021/08/12 02:06:07;;;;;;;0.00;0.00;;;20.00;74.20;;;;;;4979269;28;20543;-91
2021/08/12 02:08:33;;;;;;;0.10;0.10;;;20.00;74.30;;;;;;4990402;28;20026;-90
2021/08/12 02:10:58;;;;;;;0.00;0.00;;;19.90;74.30;;;;;;5016822;28;20046;-92
2021/08/12 02:13:25;;;;;;;0.00;0.00;;;19.90;74.50;;;;;;4987635;28;20022;-91
2021/08/12 02:15:51;;;;;;;0.00;0.00;;;19.90;74.50;;;;;;4979083;28;20484;-90
2021/08/12 02:18:17;;;;;;;0.10;0.10;;;19.90;74.50;;;;;;4996994;28;20022;-90
2021/08/12 02:20:49;;;;;;;0.10;0.10;;;19.80;74.50;;;;;;4979861;28;20057;-92
2021/08/12 02:23:25;;;;;;;0.10;0.10;;;19.80;74.60;;;;;;4996727;28;20085;-91
2021/08/12 02:26:00;;;;;;;0.10;0.10;;;19.70;74.70;;;;;;4980183;28;20084;-92
2021/08/12 02:28:28;;;;;;;0.10;0.10;;;19.70;74.80;;;;;;4980653;28;20089;-90
2021/08/12 02:30:57;;;;;;;0.00;0.00;;;19.60;74.80;;;;;;4982951;28;20039;-91
2021/08/12 02:33:27;;;;;;;0.00;0.00;;;19.60;75.00;;;;;;4982784;28;20027;-91
2021/08/12 02:35:53;;;;;;;0.00;0.00;;;19.60;75.20;;;;;;4979286;28;20077;-92
2021/08/12 02:38:20;;;;;;;0.08;0.08;;;19.50;75.30;;;;;;4983146;28;20066;-91
2021/08/12 02:40:50;;;;;;;0.10;0.10;;;19.50;75.30;;;;;;4984493;28;20025;-91
2021/08/12 02:43:17;;;;;;;0.10;0.10;;;19.50;75.40;;;;;;5003034;28;20029;-91
2021/08/12 02:45:51;;;;;;;0.10;0.10;;;19.40;75.50;;;;;;4979441;28;20034;-92
2021/08/12 02:48:17;;;;;;;0.10;0.10;;;19.40;75.60;;;;;;4979091;28;20464;-91
2021/08/12 02:50:45;;;;;;;0.10;0.10;;;19.40;75.70;;;;;;4979046;28;20088;-93
2021/08/12 02:53:11;;;;;;;0.00;0.00;;;19.30;75.80;;;;;;4978409;28;20551;-90
2021/08/12 02:55:38;;;;;;;0.05;0.05;;;19.30;76.00;;;;;;4977486;28;20065;-90
2021/08/12 02:58:05;;;;;;;0.00;0.00;;;19.30;76.10;;;;;;4977559;28;20022;-90
2021/08/12 03:00:32;;;;;;;0.00;0.00;;;19.20;76.20;;;;;;4995300;28;20031;-90
2021/08/12 03:02:59;;;;;;;0.00;0.00;;;19.20;76.40;;;;;;4977359;28;20018;-90
2021/08/12 03:05:27;;;;;;;0.10;0.10;;;19.20;76.50;;;;;;4977674;28;20112;-90
2021/08/12 03:07:53;;;;;;;0.00;0.00;;;19.20;76.60;;;;;;4978421;28;20019;-91
2021/08/12 03:10:20;;;;;;;0.10;0.10;;;19.20;76.70;;;;;;4977735;28;20038;-92
2021/08/12 03:12:47;;;;;;;0.10;0.10;;;19.20;76.80;;;;;;4978249;28;20022;-91
2021/08/12 03:15:14;;;;;;;0.00;0.00;;;19.20;76.90;;;;;;4977851;28;20492;-90
2021/08/12 03:17:40;;;;;;;0.10;0.10;;;19.30;76.90;;;;;;4980986;28;20113;-90
2021/08/12 03:20:07;;;;;;;0.10;0.10;;;19.30;77.00;;;;;;4977157;28;20121;-90
2021/08/12 03:22:33;;;;;;;0.00;0.00;;;19.30;76.90;;;;;;4977309;28;20033;-91
2021/08/12 03:24:59;;;;;;;0.05;0.05;;;19.30;77.00;;;;;;4977688;28;20070;-91
2021/08/12 03:27:26;;;;;;;0.00;0.00;;;19.30;76.90;;;;;;4979253;28;20033;-91
2021/08/12 03:29:52;;;;;;;0.00;0.00;;;19.30;77.00;;;;;;4981933;28;20033;-91
2021/08/12 03:32:21;;;;;;;0.00;0.00;;;19.30;77.00;;;;;;4983784;28;20066;-91
2021/08/12 03:34:47;;;;;;;0.10;0.10;;;19.40;77.10;;;;;;4977980;28;20038;-92
2021/08/12 03:37:14;;;;;;;0.00;0.00;;;19.30;77.00;;;;;;4977809;28;20117;-90
2021/08/12 03:39:40;;;;;;;0.00;0.00;;;19.30;77.10;;;;;;4976938;28;20030;-91
2021/08/12 03:42:06;;;;;;;0.10;0.10;;;19.30;77.20;;;;;;4977648;28;20026;-91
2021/08/12 03:44:32;;;;;;;0.00;0.00;;;19.40;77.30;;;;;;4997683;28;20084;-93
2021/08/12 03:46:58;;;;;;;0.00;0.00;;;19.40;77.40;;;;;;4978624;28;20104;-92
2021/08/12 03:49:24;;;;;;;0.00;0.00;;;19.40;77.30;;;;;;4977759;28;20034;-92
2021/08/12 03:51:49;;;;;;;0.10;0.10;;;19.50;77.20;;;;;;4979535;28;20041;-92
2021/08/12 03:54:15;;;;;;;0.00;0.00;;;19.50;77.10;;;;;;4978749;28;20066;-91
2021/08/12 03:56:41;;;;;;;0.00;0.00;;;19.60;77.10;;;;;;4979070;28;20034;-92
2021/08/12 03:59:06;;;;;;;0.08;0.08;;;19.70;76.90;;;;;;4979453;28;20030;-91
2021/08/12 04:01:33;;;;;;;0.10;0.10;;;19.80;76.70;;;;;;4974862;28;20156;-92
2021/08/12 04:03:59;;;;;;;0.00;0.00;;;19.90;76.40;;;;;;4977529;28;20022;-91
2021/08/12 04:06:25;;;;;;;0.00;0.00;;;19.90;76.30;;;;;;4975898;28;20480;-91
2021/08/12 04:08:51;;;;;;;0.10;0.10;;;20.10;76.00;;;;;;4994869;28;20026;-92
2021/08/12 04:11:17;;;;;;;0.00;0.00;;;20.10;75.80;;;;;;4976820;28;20498;-91
2021/08/12 04:13:43;;;;;;;0.00;0.00;;;20.20;75.60;;;;;;4976508;28;20042;-91
2021/08/12 04:16:08;;;;;;;0.10;0.10;;;20.20;75.60;;;;;;5001662;28;20038;-92
2021/08/12 04:18:35;;;;;;;0.10;0.10;;;20.30;75.30;;;;;;4978659;28;20033;-91
2021/08/12 04:21:01;;;;;;;0.10;0.10;;;20.40;75.10;;;;;;4977808;28;20106;-90
2021/08/12 04:23:27;;;;;;;0.10;0.10;;;20.50;74.90;;;;;;4978081;28;20049;-90
2021/08/12 04:25:53;;;;;;;0.00;0.00;;;20.60;74.80;;;;;;4983202;28;20089;-91
2021/08/12 04:28:19;;;;;;;0.10;0.10;;;20.70;74.60;;;;;;4998225;28;20026;-90
2021/08/12 04:30:44;;;;;;;0.00;0.00;;;20.80;74.40;;;;;;4995849;28;20062;-91
2021/08/12 04:33:10;;;;;;;0.00;0.00;;;20.90;74.30;;;;;;4980458;28;20038;-91
2021/08/12 04:35:36;;;;;;;0.00;0.00;;;20.90;74.00;;;;;;4976609;28;20407;-91
2021/08/12 04:38:02;;;;;;;0.00;0.00;;;21.00;73.90;;;;;;4994075;28;20104;-91
2021/08/12 04:40:27;;;;;;;0.00;0.00;;;21.10;73.60;;;;;;4977222;28;20038;-91
2021/08/12 04:42:54;;;;;;;0.10;0.10;;;21.10;73.30;;;;;;4976590;28;20027;-90
2021/08/12 04:45:21;;;;;;;0.00;0.00;;;21.20;73.40;;;;;;4978292;28;20038;-90
2021/08/12 04:47:46;;;;;;;0.00;0.00;;;21.30;73.30;;;;;;4987041;28;20037;-91
2021/08/12 04:50:13;;;;;;;0.10;0.10;;;21.40;73.30;;;;;;4989061;28;20019;-90
2021/08/12 04:52:39;;;;;;;0.00;0.00;;;21.60;73.20;;;;;;4981557;28;20534;-90
2021/08/12 04:55:10;;;;;;;0.10;0.10;;;21.80;73.00;;;;;;4976624;28;20038;-92
2021/08/12 04:57:36;;;;;;;0.00;0.00;;;22.00;73.10;;;;;;4978152;28;20027;-92
2021/08/12 05:00:03;;;;;;;0.10;0.10;;;22.30;72.90;;;;;;4977116;28;20030;-91
2021/08/12 05:02:28;;;;;;;0.00;0.00;;;22.60;72.20;;;;;;4978938;28;20022;-91
2021/08/12 05:04:54;;;;;;;0.00;0.00;;;22.70;71.20;;;;;;4976849;28;20034;-90
2021/08/12 05:07:21;;;;;;;0.00;0.00;;;22.90;71.50;;;;;;4977007;28;20394;-94
2021/08/12 05:09:47;;;;;;;0.00;0.00;;;23.20;71.50;;;;;;4977802;28;20553;-93
2021/08/12 05:12:17;;;;;;;0.00;0.00;;;23.60;71.00;;;;;;4981031;28;20054;-91
2021/08/12 05:14:42;;;;;;;0.00;0.00;;;24.20;70.20;;;;;;4998420;28;20038;-92
2021/08/12 05:17:08;;;;;;;0.00;0.00;;;24.70;69.20;;;;;;4982297;28;20463;-91
2021/08/12 05:19:34;;;;;;;0.00;0.00;;;25.30;68.10;;;;;;4980869;28;20101;-91
2021/08/12 05:21:59;;;;;;;0.10;0.10;;;25.80;67.00;;;;;;4980556;28;20341;-91
2021/08/12 05:24:25;;;;;;;0.00;0.00;;;26.20;66.20;;;;;;4979312;28;20038;-91
2021/08/12 05:26:51;;;;;;;0.00;0.00;;;26.60;65.40;;;;;;4981683;28;20027;-92
2021/08/12 05:29:16;;;;;;;0.00;0.00;;;27.10;64.50;;;;;;4979327;28;20486;-93
2021/08/12 05:31:46;;;;;;;0.00;0.00;;;27.50;63.30;;;;;;4979594;28;20026;-95
2021/08/12 05:34:12;;;;;;;0.00;0.00;;;27.80;62.60;;;;;;4983490;28;20046;-92
2021/08/12 05:36:37;;;;;;;0.00;0.00;;;28.00;61.50;;;;;;4979766;28;20022;-92
2021/08/12 05:39:03;;;;;;;0.00;0.00;;;28.10;61.10;;;;;;4982172;28;20026;-94
2021/08/12 05:41:29;;;;;;;0.00;0.00;;;28.30;60.60;;;;;;4977168;28;20119;-91
2021/08/12 05:43:55;;;;;;;0.00;0.00;;;28.40;60.20;;;;;;4977824;28;20030;-92
2021/08/12 05:46:21;;;;;;;0.00;0.00;;;28.60;59.70;;;;;;4996134;28;20507;-91
2021/08/12 05:48:46;;;;;;;0.00;0.00;;;28.90;59.50;;;;;;4979866;28;20470;-91
2021/08/12 05:51:12;;;;;;;0.00;0.00;;;29.20;59.10;;;;;;4979663;28;20058;-91
2021/08/12 05:53:38;;;;;;;0.00;0.00;;;29.40;58.20;;;;;;4981371;28;20436;-92
2021/08/12 05:56:04;;;;;;;0.00;0.00;;;29.60;57.90;;;;;;5004187;28;20035;-92
2021/08/12 05:58:37;;;;;;;0.00;0.00;;;29.80;57.70;;;;;;4980334;28;20053;-92
2021/08/12 06:01:03;;;;;;;0.00;0.00;;;30.00;56.90;;;;;;4978939;28;20045;-92
2021/08/12 06:03:29;;;;;;;0.00;0.00;;;30.20;56.60;;;;;;4981979;28;20030;-91
2021/08/12 06:05:56;;;;;;;0.00;0.00;;;30.30;55.40;;;;;;4979851;28;20058;-92
2021/08/12 06:08:22;;;;;;;0.00;0.00;;;30.30;55.70;;;;;;4997872;28;20103;-93
2021/08/12 06:10:48;;;;;;;0.00;0.00;;;30.60;54.80;;;;;;4978968;28;20027;-92
2021/08/12 06:13:13;;;;;;;0.00;0.00;;;30.50;55.10;;;;;;4978970;28;20504;-92
2021/08/12 06:15:39;;;;;;;0.03;0.03;;;30.80;54.90;;;;;;4979744;28;20054;-92
2021/08/12 06:18:10;;;;;;;0.00;0.00;;;30.90;54.80;;;;;;4984865;28;20108;-92
2021/08/12 06:20:37;;;;;;;0.00;0.00;;;31.20;54.50;;;;;;4980964;28;20034;-93
2021/08/12 06:23:06;;;;;;;0.00;0.00;;;31.50;54.10;;;;;;4979762;28;20430;-93
2021/08/12 06:25:38;;;;;;;0.00;0.00;;;31.80;53.60;;;;;;4997786;28;20030;-94
2021/08/12 06:28:05;;;;;;;0.00;0.00;;;31.80;52.70;;;;;;4982436;28;20026;-91
2021/08/12 06:30:31;;;;;;;0.00;0.00;;;31.70;53.00;;;;;;4980603;28;20041;-92
2021/08/12 06:32:57;;;;;;;0.00;0.00;;;31.70;53.20;;;;;;4977557;28;20033;-93
2021/08/12 06:35:23;;;;;;;0.00;0.00;;;31.90;52.90;;;;;;4981521;28;20038;-92
2021/08/12 06:37:50;;;;;;;0.00;0.00;;;32.30;52.90;;;;;;4980435;28;20057;-94
2021/08/12 06:40:18;;;;;;;0.00;0.00;;;32.70;52.30;;;;;;4979137;28;20094;-91
2021/08/12 06:42:44;;;;;;;0.10;0.10;;;32.90;52.20;;;;;;4979490;28;20454;-91
2021/08/12 06:45:11;;;;;;;0.00;0.00;;;33.20;51.50;;;;;;4983425;28;20031;-93
2021/08/12 06:47:37;;;;;;;0.00;0.00;;;33.30;50.90;;;;;;4978520;28;20026;-92
2021/08/12 06:50:04;;;;;;;0.00;0.00;;;33.80;50.60;;;;;;4978331;28;20034;-89
2021/08/12 06:52:30;;;;;;;0.10;0.10;;;34.20;50.00;;;;;;4977672;28;20156;-91
2021/08/12 06:54:56;;;;;;;0.00;0.00;;;34.50;49.70;;;;;;4978271;28;20112;-91
2021/08/12 06:57:22;;;;;;;0.00;0.00;;;34.60;48.90;;;;;;4978173;28;20030;-90
2021/08/12 06:59:47;;;;;;;0.00;0.00;;;34.80;48.60;;;;;;4977159;28;20037;-90
2021/08/12 07:02:13;;;;;;;0.05;0.05;;;35.10;48.40;;;;;;4998355;28;20030;-91
2021/08/12 07:04:39;;;;;;;0.10;0.10;;;35.10;48.30;;;;;;4981526;28;20041;-92
2021/08/12 07:07:05;;;;;;;0.05;0.05;;;35.20;48.00;;;;;;4982626;28;20026;-93
2021/08/12 07:09:30;;;;;;;0.10;0.10;;;35.20;47.90;;;;;;4979666;28;20033;-93
2021/08/12 07:11:56;;;;;;;0.08;0.08;;;35.30;47.70;;;;;;4983332;28;20030;-91
2021/08/12 07:14:23;;;;;;;0.00;0.00;;;35.40;47.40;;;;;;4978829;28;20510;-92
2021/08/12 07:16:48;;;;;;;0.10;0.10;;;35.70;47.50;;;;;;4978289;28;20035;-92
2021/08/12 07:19:14;;;;;;;0.03;0.00;;;35.90;47.00;;;;;;4979479;28;20033;-89
2021/08/12 07:21:41;;;;;;;0.00;0.00;;;36.20;46.70;;;;;;4982972;28;20037;-91
2021/08/12 07:24:08;;;;;;;0.00;0.00;;;36.30;46.40;;;;;;4978267;28;20026;-90
2021/08/12 07:26:34;;;;;;;0.00;0.00;;;36.40;46.20;;;;;;4979419;28;20053;-92
2021/08/12 07:29:00;;;;;;;0.00;0.00;;;36.50;45.90;;;;;;4980229;28;20029;-92
2021/08/12 07:31:26;;;;;;;0.00;0.00;;;36.70;46.00;;;;;;4980570;28;20384;-92
2021/08/12 07:33:52;;;;;;;0.08;0.08;;;36.70;45.10;;;;;;4980062;28;20424;-92
2021/08/12 07:36:18;;;;;;;0.00;0.00;;;36.90;45.00;;;;;;4979746;28;20065;-92
2021/08/12 07:38:44;;;;;;;0.00;0.00;;;37.10;44.80;;;;;;4983487;28;20117;-88
2021/08/12 07:41:11;;;;;;;0.10;0.10;;;37.20;44.20;;;;;;4998041;28;20074;-91
2021/08/12 07:43:36;;;;;;;0.00;0.00;;;37.00;43.70;;;;;;4977169;28;20076;-89
2021/08/12 07:46:02;;;;;;;0.10;0.10;;;37.20;44.10;;;;;;4978697;28;20419;-91
2021/08/12 07:48:36;;;;;;;0.10;0.10;;;37.40;44.00;;;;;;4978285;28;20054;-93
2021/08/12 07:51:02;;;;;;;0.10;0.10;;;37.80;43.60;;;;;;4979234;28;20037;-91
2021/08/12 07:53:28;;;;;;;0.10;0.10;;;37.80;43.20;;;;;;4981693;28;20022;-89
2021/08/12 07:55:56;;;;;;;0.00;0.00;;;37.80;43.40;;;;;;4979839;28;20084;-90
2021/08/12 07:58:22;;;;;;;0.10;0.10;;;37.90;42.70;;;;;;4979191;28;20018;-90
2021/08/12 08:00:48;;;;;;;0.10;0.10;;;38.00;42.40;;;;;;4977713;28;20066;-90
2021/08/12 08:03:14;;;;;;;0.10;0.10;;;38.10;42.50;;;;;;4978509;28;20029;-90
2021/08/12 08:05:40;;;;;;;0.10;0.10;;;38.20;42.20;;;;;;4977618;28;20129;-89
2021/08/12 08:08:06;;;;;;;0.10;0.10;;;38.30;42.60;;;;;;4979518;28;20026;-91
2021/08/12 08:10:31;;;;;;;0.10;0.10;;;38.40;41.80;;;;;;4980729;28;20054;-91
2021/08/12 08:12:57;;;;;;;0.10;0.10;;;38.30;41.70;;;;;;4997631;28;20050;-90
2021/08/12 08:15:24;;;;;;;0.10;0.10;;;38.30;41.70;;;;;;4980805;28;20042;-91
2021/08/12 08:17:52;;;;;;;0.10;0.10;;;38.40;41.30;;;;;;4990829;28;20054;-89
2021/08/12 08:20:18;;;;;;;0.10;0.10;;;38.50;41.20;;;;;;4991295;28;20034;-91
2021/08/12 08:22:45;;;;;;;0.10;0.10;;;38.80;41.10;;;;;;4987397;28;20064;-90
2021/08/12 08:25:11;;;;;;;0.10;0.10;;;39.10;40.70;;;;;;5004544;28;20038;-90
2021/08/12 08:27:37;;;;;;;0.10;0.10;;;39.20;40.60;;;;;;4980904;28;20109;-91
2021/08/12 08:30:04;;;;;;;0.10;0.10;;;39.20;40.00;;;;;;4981654;28;20399;-92
2021/08/12 08:32:32;;;;;;;0.10;0.10;;;39.30;40.10;;;;;;4980490;28;20022;-93
2021/08/12 08:35:03;;;;;;;0.00;0.00;;;39.50;39.90;;;;;;4979482;28;20042;-93
2021/08/12 08:37:29;;;;;;;0.10;0.10;;;39.60;39.60;;;;;;4978623;28;20627;-92
2021/08/12 08:39:55;;;;;;;0.10;0.10;;;39.60;39.30;;;;;;4979503;28;20035;-91
2021/08/12 08:42:21;;;;;;;0.10;0.10;;;39.60;39.20;;;;;;4980294;28;20406;-91
2021/08/12 08:44:50;;;;;;;0.10;0.10;;;39.60;38.60;;;;;;4981517;28;20065;-91
2021/08/12 08:47:17;;;;;;;0.10;0.10;;;39.60;38.50;;;;;;4985457;28;20053;-93
2021/08/12 08:49:46;;;;;;;0.10;0.10;;;39.10;37.70;;;;;;5003661;28;20474;-92
2021/08/12 08:52:13;;;;;;;0.10;0.10;;;39.40;38.20;;;;;;4982211;28;20551;-91
2021/08/12 08:54:40;;;;;;;0.10;0.10;;;39.50;38.10;;;;;;5009156;28;20051;-93
2021/08/12 08:57:07;;;;;;;0.10;0.10;;;39.70;37.90;;;;;;4986833;28;20022;-93
2021/08/12 08:59:34;;;;;;;0.10;0.10;;;39.70;38.00;;;;;;4988705;28;20046;-90
2021/08/12 09:02:05;;;;;;;0.10;0.10;;;39.80;37.70;;;;;;4986459;28;20030;-92
2021/08/12 09:04:36;;;;;;;0.10;0.10;;;40.00;37.10;;;;;;4984002;28;20039;-92
2021/08/12 09:07:08;;;;;;;0.10;0.10;;;39.90;36.80;;;;;;4993603;28;20053;-92
2021/08/12 09:09:35;;;;;;;0.10;0.10;;;40.00;37.00;;;;;;4985251;28;20542;-93
2021/08/12 09:12:01;;;;;;;0.10;0.10;;;40.10;36.80;;;;;;4986072;28;20102;-92
2021/08/12 09:14:42;;;;;;;0.10;0.10;;;40.20;36.80;;;;;;4981483;28;20050;-92
2021/08/12 09:17:23;;;;;;;0.10;0.10;;;40.70;36.90;;;;;;4981056;28;20168;-90
2021/08/12 09:20:09;;;;;;;0.10;0.10;;;41.00;36.40;;;;;;4998710;28;20383;-91
2021/08/12 09:23:02;;;;;;;0.10;0.10;;;41.10;36.30;;;;;;4985923;28;20687;-91
2021/08/12 09:25:33;;;;;;;0.10;0.10;;;41.30;36.10;;;;;;5002403;28;20058;-91
2021/08/12 09:28:22;;;;;;;0.10;0.10;;;41.40;36.60;;;;;;4980247;28;20026;-92
2021/08/12 09:30:57;;;;;;;0.10;0.10;;;41.70;35.40;;;;;;5000051;28;20042;-92
2021/08/12 09:33:24;;;;;;;0.20;0.20;;;41.80;36.20;;;;;;4979659;28;20438;-92
2021/08/12 09:35:50;;;;;;;0.10;0.10;;;41.90;36.30;;;;;;4980085;28;20042;-93
2021/08/12 09:38:16;;;;;;;0.10;0.10;;;42.30;36.10;;;;;;4980868;28;20479;-92
2021/08/12 09:40:48;;;;;;;0.10;0.10;;;42.30;35.60;;;;;;4983310;28;20030;-90
2021/08/12 09:43:14;;;;;;;0.13;0.13;;;42.30;35.60;;;;;;4978708;28;20168;-93
2021/08/12 09:45:40;;;;;;;0.10;0.10;;;42.50;35.70;;;;;;4980327;28;20129;-91
2021/08/12 09:48:16;;;;;;;0.10;0.10;;;42.70;35.20;;;;;;4979962;28;20037;-92
2021/08/12 09:50:44;;;;;;;0.10;0.10;;;42.80;35.00;;;;;;4981095;28;20038;-92
2021/08/12 09:53:20;;;;;;;0.10;0.10;;;43.00;34.90;;;;;;4980876;28;20037;-93
2021/08/12 09:55:47;;;;;;;0.20;0.20;;;43.00;34.00;;;;;;4979160;28;20096;-93
2021/08/12 09:58:14;;;;;;;0.10;0.10;;;42.90;34.30;;;;;;4983207;28;20030;-91
2021/08/12 10:00:45;;;;;;;0.15;0.15;;;42.90;34.20;;;;;;4987369;28;20030;-92
2021/08/12 10:03:32;;;;;;;0.10;0.10;;;43.10;33.90;;;;;;4981657;28;20438;-93
2021/08/12 10:06:00;;;;;;;0.10;0.10;;;43.10;33.20;;;;;;4983438;28;20546;-92
2021/08/12 10:08:36;;;;;;;0.10;0.10;;;42.50;33.40;;;;;;4979792;28;20034;-91
2021/08/12 10:11:31;;;;;;;0.20;0.20;;;42.50;33.90;;;;;;4981133;28;20030;-92
2021/08/12 10:14:04;;;;;;;0.10;0.10;;;42.80;33.80;;;;;;4981963;28;20030;-93
2021/08/12 10:16:33;;;;;;;0.10;0.10;;;43.10;33.90;;;;;;4988298;28;20043;-92
2021/08/12 10:19:03;;;;;;;0.10;0.10;;;43.30;33.90;;;;;;4986217;28;20506;-93
2021/08/12 10:21:29;;;;;;;0.10;0.10;;;43.20;33.60;;;;;;4979143;28;20022;-92
2021/08/12 10:23:57;;;;;;;0.20;0.20;;;43.00;33.80;;;;;;4979967;28;20073;-92
2021/08/12 10:26:28;;;;;;;0.20;0.20;;;42.90;34.00;;;;;;4981474;28;20023;-91
2021/08/12 10:29:03;;;;;;;0.10;0.10;;;42.70;33.90;;;;;;4985559;28;20034;-94
2021/08/12 10:31:29;;;;;;;0.10;0.10;;;42.60;34.10;;;;;;4986853;28;20054;-90
2021/08/12 10:33:56;;;;;;;0.10;0.10;;;42.60;34.20;;;;;;4986615;28;20042;-93
2021/08/12 10:36:23;;;;;;;0.10;0.10;;;42.60;34.20;;;;;;4982253;28;20022;-93
2021/08/12 10:38:49;;;;;;;0.10;0.10;;;42.80;34.10;;;;;;4981503;28;20023;-92
2021/08/12 10:41:17;;;;;;;0.10;0.10;;;43.20;34.00;;;;;;4985601;28;20034;-94
2021/08/12 10:43:46;;;;;;;0.20;0.20;;;43.50;33.80;;;;;;4987209;28;20053;-92
2021/08/12 10:46:29;;;;;;;0.10;0.10;;;43.60;33.40;;;;;;4988928;28;20034;-93
2021/08/12 10:49:30;;;;;;;0.10;0.10;;;43.80;33.20;;;;;;4982387;28;20054;-92
2021/08/12 10:52:09;;;;;;;0.10;0.10;;;43.50;32.60;;;;;;4981536;28;20025;-90
2021/08/12 10:54:37;;;;;;;0.10;0.10;;;43.40;33.00;;;;;;4983344;28;20035;-90
2021/08/12 10:57:12;;;;;;;0.10;0.10;;;43.30;33.10;;;;;;4983176;28;20022;-92
2021/08/12 10:59:39;;;;;;;0.10;0.10;;;43.80;33.00;;;;;;4982936;28;20063;-92
2021/08/12 11:02:27;;;;;;;0.13;0.13;;;44.00;33.10;;;;;;4982882;28;20026;-91
2021/08/12 11:04:54;;;;;;;0.10;0.10;;;44.20;33.00;;;;;;4986025;28;20038;-93
2021/08/12 11:07:38;;;;;;;0.10;0.10;;;44.10;32.80;;;;;;4983055;28;20098;-91
2021/08/12 11:10:12;;;;;;;0.10;0.10;;;44.20;32.70;;;;;;4980533;28;20077;-90
2021/08/12 11:12:53;;;;;;;0.10;0.10;;;44.20;32.70;;;;;;4983029;28;20027;-94
2021/08/12 11:15:37;;;;;;;0.10;0.10;;;43.70;32.70;;;;;;4981496;28;20132;-91
2021/08/12 11:18:04;;;;;;;0.10;0.10;;;43.20;32.80;;;;;;4982211;28;20027;-91
2021/08/12 11:20:39;;;;;;;0.10;0.10;;;42.80;32.80;;;;;;4981901;28;20080;-92
2021/08/12 11:23:20;;;;;;;0.10;0.10;;;42.70;32.80;;;;;;4989522;28;20029;-90
2021/08/12 11:26:07;;;;;;;0.10;0.10;;;42.60;32.70;;;;;;4988464;28;20035;-91
2021/08/12 11:28:39;;;;;;;0.10;0.10;;;42.60;33.00;;;;;;4981917;28;20023;-91
2021/08/12 11:31:09;;;;;;;0.10;0.10;;;42.70;33.30;;;;;;4982632;28;20038;-94
2021/08/12 11:34:02;;;;;;;0.10;0.10;;;43.00;33.10;;;;;;4985172;28;20030;-89
2021/08/12 11:36:35;;;;;;;0.10;0.10;;;43.20;32.70;;;;;;4997098;28;20038;-92
2021/08/12 11:39:07;;;;;;;0.10;0.10;;;43.40;32.90;;;;;;4998560;28;20046;-91
2021/08/12 11:41:39;;;;;;;0.10;0.10;;;43.50;32.60;;;;;;4978817;28;20030;-92
2021/08/12 11:44:13;;;;;;;0.10;0.10;;;43.60;32.70;;;;;;4980548;28;20109;-91
2021/08/12 11:46:39;;;;;;;0.10;0.10;;;43.90;32.60;;;;;;4997854;28;20591;-91
2021/08/12 11:49:06;;;;;;;0.10;0.10;;;44.20;32.30;;;;;;4980619;28;20026;-91
2021/08/12 11:51:34;;;;;;;0.10;0.10;;;44.20;32.00;;;;;;4982949;28;20061;-94
2021/08/12 11:54:01;;;;;;;0.10;0.10;;;44.00;32.00;;;;;;4981450;28;20084;-92
2021/08/12 11:56:29;;;;;;;0.10;0.10;;;44.00;32.20;;;;;;4982057;28;20080;-91
2021/08/12 11:58:56;;;;;;;0.10;0.10;;;44.00;31.70;;;;;;4982403;28;20093;-93
2021/08/12 12:01:24;;;;;;;0.10;0.10;;;43.70;31.80;;;;;;4982889;28;20042;-91
2021/08/12 12:04:00;;;;;;;0.10;0.10;;;43.40;31.80;;;;;;4995652;28;20026;-90
2021/08/12 12:06:40;;;;;;;0.10;0.10;;;43.40;32.00;;;;;;4982158;28;20057;-92
2021/08/12 12:09:27;;;;;;;0.10;0.10;;;43.70;31.90;;;;;;4980558;28;20480;-92
2021/08/12 12:11:56;;;;;;;0.10;0.10;;;43.80;31.70;;;;;;4983565;28;20030;-92
2021/08/12 12:14:34;;;;;;;0.10;0.10;;;43.60;31.60;;;;;;4983401;28;20504;-92
2021/08/12 12:17:15;;;;;;;0.10;0.10;;;43.30;31.50;;;;;;4987915;28;20045;-92
2021/08/12 12:20:05;;;;;;;0.10;0.10;;;43.20;31.70;;;;;;4981763;28;20034;-92
2021/08/12 12:22:32;;;;;;;0.10;0.10;;;43.00;32.00;;;;;;5001153;28;20037;-92
2021/08/12 12:25:04;;;;;;;0.10;0.10;;;43.10;32.10;;;;;;4983824;28;20065;-93
2021/08/12 12:27:30;;;;;;;0.10;0.10;;;43.30;32.00;;;;;;4982878;28;20050;-91
2021/08/12 12:30:06;;;;;;;0.10;0.10;;;43.60;31.80;;;;;;4999274;28;20070;-92
2021/08/12 12:32:32;;;;;;;0.10;0.10;;;44.00;31.70;;;;;;4981416;28;20027;-93
2021/08/12 12:35:02;;;;;;;0.10;0.10;;;44.20;31.60;;;;;;4981416;28;20134;-92
2021/08/12 12:37:28;;;;;;;0.10;0.10;;;44.30;31.50;;;;;;4981693;28;20056;-92
2021/08/12 12:39:54;;;;;;;0.10;0.10;;;44.30;31.40;;;;;;4980245;28;20022;-93
2021/08/12 12:42:20;;;;;;;0.10;0.10;;;44.50;31.30;;;;;;4978824;28;20084;-91
2021/08/12 12:45:00;;;;;;;0.10;0.10;;;44.80;31.10;;;;;;4997583;28;20030;-92
2021/08/12 12:47:31;;;;;;;0.20;0.20;;;45.20;30.90;;;;;;4980875;28;20030;-91
2021/08/12 12:50:19;;;;;;;0.10;0.10;;;45.30;31.10;;;;;;4980579;28;20073;-92
2021/08/12 12:52:57;;;;;;;0.10;0.10;;;45.40;31.20;;;;;;4981560;28;20023;-91
2021/08/12 12:55:33;;;;;;;0.10;0.10;;;45.70;30.70;;;;;;4979688;28;20149;-92
2021/08/12 12:58:20;;;;;;;0.10;0.10;;;46.00;30.90;;;;;;4980713;28;20030;-91